Time;durP1;ratioP1;P1;durP2;ratioP2;P2;SDS_P1;SDS_P2;PMS_P1;PMS_P2;Temp;Humidity;BMP_temperature;BMP_pressure;BME280_temperature;BME280_humidity;BME280_pressure;Samples;Min_cycle;Max_cycle;Signal;HPM_P1;HPM_P2
2021/12/14 00:00:24;;;;;;;;;;;;;;;2.53;100.00;97137.44;4994486;28;20009;-82
2021/12/14 00:02:50;;;;;;;;;;;;;;;2.67;100.00;97146.38;4987897;28;19926;-83
2021/12/14 00:05:18;;;;;;;;;;;;;;;2.62;100.00;97152.06;4988966;28;19921;-83
2021/12/14 00:07:43;;;;;;;;;;;;;;;2.49;100.00;97144.75;5001538;28;19932;-83
2021/12/14 00:10:42;;;;;;;;;;;;;;;2.47;100.00;97138.91;5000621;28;20017;-83
2021/12/14 00:13:20;;;;;;;;;;;;;;;2.46;100.00;97145.06;5000992;28;20413;-83
2021/12/14 00:15:46;;;;;;;;;;;;;;;2.57;100.00;97144.75;5003107;28;19952;-84
2021/12/14 00:18:13;;;;;;;;;;;;;;;2.51;100.00;97145.41;5002143;28;19921;-83
2021/12/14 00:20:41;;;;;;;;;;;;;;;2.40;100.00;97144.91;5002177;28;19961;-84
2021/12/14 00:25:42;;;;;;;;;;;;;;;2.42;100.00;97137.75;5001713;28;19993;-85
2021/12/14 00:28:13;;;;;;;;;;;;;;;2.46;100.00;97136.47;5001973;28;20332;-85
2021/12/14 00:30:39;;;;;;;;;;;;;;;2.43;100.00;97144.59;5013204;28;19981;-85
2021/12/14 00:33:06;;;;;;;;;;;;;;;2.43;100.00;97142.00;5017270;28;19929;-85
2021/12/14 00:35:32;;;;;;;;;;;;;;;2.38;100.00;97159.84;5017190;28;19921;-85
2021/12/14 00:37:58;;;;;;;;;;;;;;;2.52;100.00;97154.00;5007734;28;19941;-85
2021/12/14 00:40:25;;;;;;;;;;;;;;;2.34;100.00;97149.78;4998777;28;20009;-85
2021/12/14 00:42:51;;;;;;;;;;;;;;;2.32;100.00;97143.94;4998784;28;19921;-84
2021/12/14 00:45:19;;;;;;;;;;;;;;;2.32;100.00;97143.94;4999354;28;20024;-84
2021/12/14 00:47:44;;;;;;;;;;;;;;;2.31;100.00;97152.72;4999544;28;20410;-84
2021/12/14 00:50:10;;;;;;;;;;;;;;;2.19;100.00;97151.38;4999659;28;19929;-84
2021/12/14 00:52:41;;;;;;;;;;;;;;;2.19;100.00;97156.56;5000530;28;19921;-84
2021/12/14 00:55:08;;;;;;;;;;;;;;;2.20;100.00;97147.81;5010440;28;19941;-84
2021/12/14 00:57:36;;;;;;;;;;;;;;;2.24;100.00;97140.50;4999921;28;19925;-83
2021/12/14 01:00:04;;;;;;;;;;;;;;;2.16;100.00;97143.91;4995707;28;20406;-83
2021/12/14 01:02:31;;;;;;;;;;;;;;;2.12;100.00;97140.00;4996814;28;19921;-84
2021/12/14 01:04:58;;;;;;;;;;;;;;;2.10;100.00;97150.56;5011696;28;19910;-82
2021/12/14 01:07:25;;;;;;;;;;;;;;;2.06;100.00;97140.66;5009716;28;20025;-83
2021/12/14 01:09:54;;;;;;;;;;;;;;;2.04;100.00;97147.78;5000507;28;19921;-83
2021/12/14 01:12:30;;;;;;;;;;;;;;;2.22;100.00;97140.69;4998361;28;19933;-83
2021/12/14 01:15:12;;;;;;;;;;;;;;;2.09;100.00;97145.50;5005712;28;19961;-83
2021/12/14 01:17:52;;;;;;;;;;;;;;;2.04;100.00;97129.59;5006728;28;19921;-83
2021/12/14 01:20:18;;;;;;;;;;;;;;;2.11;100.00;97141.00;5000767;28;19922;-83
2021/12/14 01:22:46;;;;;;;;;;;;;;;2.11;100.00;97143.59;5004503;28;19948;-83
2021/12/14 01:25:15;;;;;;;;;;;;;;;2.13;100.00;97154.59;5004601;28;19922;-83
2021/12/14 01:27:44;;;;;;;;;;;;;;;2.05;100.00;97159.81;5000997;28;19989;-84
2021/12/14 01:30:14;;;;;;;;;;;;;;;2.05;100.00;97165.00;5000391;28;19926;-84
2021/12/14 01:32:44;;;;;;;;;;;;;;;2.14;100.00;97158.81;5001199;28;19929;-83
2021/12/14 01:35:13;;;;;;;;;;;;;;;1.97;100.00;97146.78;4999871;28;19922;-83
2021/12/14 01:37:45;;;;;;;;;;;;;;;2.01;100.00;97143.72;5001206;28;20416;-84
2021/12/14 01:40:19;;;;;;;;;;;;;;;2.07;100.00;97144.88;5000885;28;19922;-83
2021/12/14 01:42:45;;;;;;;;;;;;;;;2.03;100.00;97153.94;5001675;28;20015;-84
2021/12/14 01:45:13;;;;;;;;;;;;;;;2.05;100.00;97144.22;5000838;28;19964;-83
2021/12/14 01:47:44;;;;;;;;;;;;;;;2.06;100.00;97146.66;5001139;28;19922;-83
2021/12/14 01:50:12;;;;;;;;;;;;;;;2.02;100.00;97145.34;5003125;28;19921;-83
2021/12/14 01:52:37;;;;;;;;;;;;;;;2.08;100.00;97160.28;5003399;28;19928;-83
2021/12/14 01:55:07;;;;;;;;;;;;;;;2.06;100.00;97166.59;5002799;28;19961;-83
2021/12/14 01:57:34;;;;;;;;;;;;;;;1.96;100.00;97164.16;5004735;28;20021;-83
2021/12/14 02:00:01;;;;;;;;;;;;;;;2.06;100.00;97151.03;5009834;28;19921;-82
2021/12/14 02:02:33;;;;;;;;;;;;;;;1.99;100.00;97155.22;5005130;28;19921;-83
2021/12/14 02:05:02;;;;;;;;;;;;;;;2.02;100.00;97162.69;5003105;28;20437;-83
2021/12/14 02:07:28;;;;;;;;;;;;;;;2.02;100.00;97149.72;5002029;28;20500;-83
2021/12/14 02:09:55;;;;;;;;;;;;;;;2.15;100.00;97155.25;4995832;28;20028;-83
2021/12/14 02:12:21;;;;;;;;;;;;;;;2.23;100.00;97151.88;4982580;28;19945;-83
2021/12/14 02:14:47;;;;;;;;;;;;;;;2.24;100.00;97154.31;4981395;28;20012;-83
2021/12/14 02:17:16;;;;;;;;;;;;;;;2.21;100.00;97154.63;4986153;28;19958;-84
2021/12/14 02:19:42;;;;;;;;;;;;;;;2.17;100.00;97152.53;4985880;28;20016;-84
2021/12/14 02:22:11;;;;;;;;;;;;;;;2.15;100.00;97155.25;4997719;28;19910;-84
2021/12/14 02:24:40;;;;;;;;;;;;;;;2.08;100.00;97162.06;5000765;28;19925;-84
2021/12/14 02:27:06;;;;;;;;;;;;;;;2.08;100.00;97162.06;5001400;28;19957;-83
2021/12/14 02:29:36;;;;;;;;;;;;;;;2.05;100.00;97160.59;5000946;28;19926;-81
2021/12/14 02:32:03;;;;;;;;;;;;;;;1.98;100.00;97159.59;5000642;28;19922;-80
2021/12/14 02:34:29;;;;;;;;;;;;;;;1.96;100.00;97151.16;4982275;28;19922;-81
2021/12/14 02:36:57;;;;;;;;;;;;;;;2.01;100.00;97153.28;4981335;28;19929;-81
2021/12/14 02:39:46;;;;;;;;;;;;;;;2.01;100.00;97148.09;4982193;28;19922;-81
2021/12/14 02:42:10;;;;;;;;;;;;;;;2.07;100.00;97150.88;4984004;28;19926;-81
2021/12/14 02:44:36;;;;;;;;;;;;;;;1.99;100.00;97144.84;4981268;28;19929;-82
2021/12/14 02:47:08;;;;;;;;;;;;;;;2.12;100.00;97142.59;4980021;28;19937;-81
2021/12/14 02:49:37;;;;;;;;;;;;;;;2.13;100.00;97141.63;4980631;28;19921;-81
2021/12/14 02:52:05;;;;;;;;;;;;;;;2.01;100.00;97146.31;4983732;28;19922;-82
2021/12/14 02:54:36;;;;;;;;;;;;;;;2.07;100.00;97142.28;4985720;28;19922;-81
2021/12/14 02:57:03;;;;;;;;;;;;;;;2.01;100.00;97146.31;4988148;28;19931;-81
2021/12/14 02:59:30;;;;;;;;;;;;;;;2.02;100.00;97141.94;4983273;28;20390;-82
2021/12/14 03:02:03;;;;;;;;;;;;;;;1.97;100.00;97131.22;4980353;28;20402;-82
2021/12/14 03:04:29;;;;;;;;;;;;;;;1.98;100.00;97143.22;4984602;28;19994;-81
2021/12/14 03:07:01;;;;;;;;;;;;;;;1.89;100.00;97142.41;4996472;28;19910;-81
2021/12/14 03:12:05;;;;;;;;;;;;;;;2.02;100.00;97144.53;5016024;28;19966;-81
2021/12/14 03:14:30;;;;;;;;;;;;;;;1.96;100.00;97142.56;5003238;28;19940;-82
2021/12/14 03:16:56;;;;;;;;;;;;;;;1.97;100.00;97131.22;4997738;28;19921;-81
2021/12/14 03:19:23;;;;;;;;;;;;;;;2.02;100.00;97147.94;5020013;28;19968;-83
2021/12/14 03:21:49;;;;;;;;;;;;;;;1.92;100.00;97136.06;5019502;28;19909;-81
2021/12/14 03:24:18;;;;;;;;;;;;;;;1.95;100.00;97146.16;5019395;28;19933;-81
2021/12/14 03:26:51;;;;;;;;;;;;;;;1.83;100.00;97146.44;5008873;28;19921;-82
2021/12/14 03:29:19;;;;;;;;;;;;;;;1.84;100.00;97150.66;4999640;28;19980;-83
2021/12/14 03:31:48;;;;;;;;;;;;;;;1.94;100.00;97141.91;5000765;28;20016;-83
2021/12/14 03:34:15;;;;;;;;;;;;;;;1.87;100.00;97143.50;4997549;28;20023;-83
2021/12/14 03:36:44;;;;;;;;;;;;;;;1.81;100.00;97138.00;4998708;28;20023;-82
2021/12/14 03:39:11;;;;;;;;;;;;;;;2.05;100.00;97144.22;4999135;28;20301;-83
2021/12/14 03:41:41;;;;;;;;;;;;;;;2.02;100.00;97149.72;4998902;28;19921;-83
2021/12/14 03:44:09;;;;;;;;;;;;;;;1.97;100.00;97146.78;4998739;28;20016;-83
2021/12/14 03:46:44;;;;;;;;;;;;;;;1.90;100.00;97145.81;4998842;28;19921;-83
2021/12/14 03:49:09;;;;;;;;;;;;;;;1.88;100.00;97137.34;4999317;28;19921;-83
2021/12/14 03:51:35;;;;;;;;;;;;;;;1.86;100.00;97140.13;4999855;28;19928;-82
2021/12/14 03:54:00;;;;;;;;;;;;;;;1.83;100.00;97151.63;4998950;28;20313;-83
2021/12/14 03:56:26;;;;;;;;;;;;;;;1.97;100.00;97144.19;4998016;28;20417;-82
2021/12/14 03:58:54;;;;;;;;;;;;;;;1.93;100.00;97145.47;4998440;28;20278;-83
2021/12/14 04:01:21;;;;;;;;;;;;;;;1.77;100.00;97139.25;4998887;28;20301;-84
2021/12/14 04:03:49;;;;;;;;;;;;;;;1.81;100.00;97138.00;5001043;28;20100;-85
2021/12/14 04:06:16;;;;;;;;;;;;;;;1.82;100.00;97143.97;5000837;28;19922;-84
2021/12/14 04:08:42;;;;;;;;;;;;;;;1.79;100.00;97145.13;4998940;28;19922;-84
2021/12/14 04:11:08;;;;;;;;;;;;;;;1.76;100.00;97140.25;4983734;28;19926;-84
2021/12/14 04:13:37;;;;;;;;;;;;;;;1.75;100.00;97138.63;4981052;28;19990;-84
2021/12/14 04:16:02;;;;;;;;;;;;;;;1.70;100.00;97140.88;4979373;28;19922;-84
2021/12/14 04:18:29;;;;;;;;;;;;;;;1.69;100.00;97135.84;4980626;28;19928;-84
2021/12/14 04:20:58;;;;;;;;;;;;;;;1.57;100.00;97130.13;4980632;28;19926;-84
2021/12/14 04:23:25;;;;;;;;;;;;;;;1.66;100.00;97136.16;4981478;28;19929;-84
2021/12/14 04:25:52;;;;;;;;;;;;;;;1.62;100.00;97135.66;4980199;28;19922;-84
2021/12/14 04:28:19;;;;;;;;;;;;;;;1.63;100.00;97132.09;4980908;28;19945;-84
2021/12/14 04:30:45;;;;;;;;;;;;;;;1.74;100.00;97124.03;4980634;28;19929;-84
2021/12/14 04:33:14;;;;;;;;;;;;;;;1.82;100.00;97131.00;4981111;28;19929;-84
2021/12/14 04:35:43;;;;;;;;;;;;;;;1.55;100.00;97126.88;4979905;28;19921;-84
2021/12/14 04:38:18;;;;;;;;;;;;;;;1.60;100.00;97129.00;4980566;28;19922;-85
2021/12/14 04:54:07;;;;;;;;;;;;;;;1.45;100.00;97126.19;4998718;28;19930;-85
2021/12/14 04:56:34;;;;;;;;;;;;;;;1.43;100.00;97128.13;4991091;28;19922;-83
2021/12/14 04:59:04;;;;;;;;;;;;;;;1.53;100.00;97128.81;4991016;28;19933;-83
2021/12/14 05:01:31;;;;;;;;;;;;;;;1.49;100.00;97135.28;4982782;28;19993;-83
2021/12/14 05:04:00;;;;;;;;;;;;;;;1.28;100.00;97146.84;4981610;28;19922;-83
2021/12/14 05:06:33;;;;;;;;;;;;;;;1.25;100.00;97147.16;4997424;28;19933;-82
2021/12/14 05:09:22;;;;;;;;;;;;;;;1.28;100.00;97144.25;4987818;28;19949;-81
2021/12/14 05:11:50;;;;;;;;;;;;;;;1.22;100.00;97144.06;4983266;28;19929;-83
2021/12/14 05:14:15;;;;;;;;;;;;;;;1.13;100.00;97152.75;4991835;28;20028;-82
2021/12/14 05:16:44;;;;;;;;;;;;;;;1.24;100.00;97148.16;4997338;28;19921;-81
2021/12/14 05:19:11;;;;;;;;;;;;;;;1.26;100.00;97141.00;4996316;28;19957;-81
2021/12/14 05:21:38;;;;;;;;;;;;;;;1.12;100.00;97133.81;4996787;28;19922;-82
2021/12/14 05:24:05;;;;;;;;;;;;;;;1.19;100.00;97132.25;5000811;28;19921;-84
2021/12/14 05:26:31;;;;;;;;;;;;;;;1.04;100.00;97128.59;4986712;28;20436;-84
2021/12/14 05:29:02;;;;;;;;;;;;;;;1.04;100.00;97134.59;4983160;28;20303;-84
2021/12/14 05:31:29;;;;;;;;;;;;;;;0.96;100.00;97131.13;5018648;23;19921;-84
2021/12/14 05:33:55;;;;;;;;;;;;;;;0.92;100.00;97130.63;5003143;28;19947;-85
2021/12/14 05:36:21;;;;;;;;;;;;;;;0.96;100.00;97121.56;4993775;28;19922;-87
2021/12/14 05:44:01;;;;;;;;;;;;;;;0.97;100.00;97117.19;4983696;28;20369;-82
2021/12/14 05:46:27;;;;;;;;;;;;;;;0.96;100.00;97113.78;4980613;28;19961;-80
2021/12/14 05:48:58;;;;;;;;;;;;;;;0.91;100.00;97117.81;4997579;28;20027;-85
2021/12/14 05:51:23;;;;;;;;;;;;;;;1.00;100.00;97128.06;5012972;28;19909;-83
2021/12/14 05:53:51;;;;;;;;;;;;;;;0.77;100.00;97116.59;5000615;28;20428;-83
2021/12/14 05:56:19;;;;;;;;;;;;;;;0.73;100.00;97110.91;5011569;28;19909;-84
2021/12/14 05:58:44;;;;;;;;;;;;;;;0.90;100.00;97105.81;5020323;28;19910;-84
2021/12/14 06:01:13;;;;;;;;;;;;;;;0.90;100.00;97111.00;5020795;28;19916;-83
2021/12/14 06:03:41;;;;;;;;;;;;;;;0.75;100.00;97098.63;5000495;28;19922;-84
2021/12/14 06:06:13;;;;;;;;;;;;;;;0.61;100.00;97093.19;4998350;28;19921;-85
2021/12/14 06:08:38;;;;;;;;;;;;;;;0.68;100.00;97087.25;5002905;28;19937;-83
2021/12/14 06:11:05;;;;;;;;;;;;;;;0.59;100.00;97088.13;4995811;28;19921;-85
2021/12/14 06:13:36;;;;;;;;;;;;;;;0.65;100.00;97087.56;5003268;28;19906;-85
2021/12/14 06:16:01;;;;;;;;;;;;;;;0.56;100.00;97090.25;5002759;28;19905;-84
2021/12/14 06:18:31;;;;;;;;;;;;;;;0.53;100.00;97106.88;4997557;28;20021;-85
2021/12/14 06:20:56;;;;;;;;;;;;;;;0.75;100.00;97103.81;5001059;28;19953;-85
2021/12/14 06:23:22;;;;;;;;;;;;;;;0.59;100.00;97098.50;4986744;28;19949;-86
2021/12/14 06:25:48;;;;;;;;;;;;;;;0.61;100.00;97101.75;4989329;28;19922;-85
2021/12/14 06:28:20;;;;;;;;;;;;;;;0.52;100.00;97108.66;5004289;28;19933;-85
2021/12/14 06:30:46;;;;;;;;;;;;;;;0.73;100.00;97100.53;5004723;28;20377;-85
2021/12/14 06:33:12;;;;;;;;;;;;;;;0.56;100.00;97109.16;5006586;28;19961;-85
2021/12/14 06:35:44;;;;;;;;;;;;;;;0.52;100.00;97113.81;5013942;28;19909;-89
2021/12/14 06:40:42;;;;;;;;;;;;;;;0.60;100.00;97130.41;5020948;28;19948;-88
2021/12/14 06:43:11;;;;;;;;;;;;;;;0.59;100.00;97126.97;5018111;28;20000;-89
2021/12/14 06:45:38;;;;;;;;;;;;;;;0.64;100.00;97109.22;5020447;28;19920;-89
2021/12/14 06:48:05;;;;;;;;;;;;;;;0.77;100.00;97116.59;5014731;28;19921;-92
2021/12/14 06:50:33;;;;;;;;;;;;;;;0.71;100.00;97112.03;5008467;28;19928;-90
2021/12/14 06:53:07;;;;;;;;;;;;;;;0.79;100.00;97110.28;5006452;28;19922;-88
2021/12/14 06:55:38;;;;;;;;;;;;;;;0.75;100.00;97114.19;5007400;28;19929;-89
2021/12/14 06:58:05;;;;;;;;;;;;;;;0.82;100.00;97116.97;5001151;28;20445;-86
2021/12/14 07:00:30;;;;;;;;;;;;;;;0.81;100.00;97111.91;4993292;28;19917;-84
2021/12/14 07:02:56;;;;;;;;;;;;;;;0.82;100.00;97103.19;4999840;28;19910;-85
2021/12/14 07:05:25;;;;;;;;;;;;;;;0.91;100.00;97123.00;4989714;28;19922;-85
2021/12/14 07:07:53;;;;;;;;;;;;;;;0.74;100.00;97117.69;4985068;28;19926;-86
2021/12/14 07:10:20;;;;;;;;;;;;;;;0.70;100.00;97105.22;4987056;28;20357;-85
2021/12/14 07:12:45;;;;;;;;;;;;;;;0.86;100.00;97107.09;5004392;28;19941;-84
2021/12/14 07:15:15;;;;;;;;;;;;;;;0.87;100.00;97124.28;5011094;28;20019;-85
2021/12/14 07:17:46;;;;;;;;;;;;;;;0.71;100.00;97092.13;5013493;28;20401;-88
2021/12/14 07:20:22;;;;;;;;;;;;;;;0.79;100.00;97099.13;5001093;28;20064;-88
2021/12/14 07:22:49;;;;;;;;;;;;;;;0.73;100.00;97099.75;5002577;28;19934;-88
2021/12/14 07:25:15;;;;;;;;;;;;;;;0.58;100.00;97117.59;5007666;28;19922;-87
2021/12/14 07:27:43;;;;;;;;;;;;;;;0.81;100.00;97123.13;5015718;28;19940;-87
2021/12/14 07:30:14;;;;;;;;;;;;;;;0.65;100.00;97128.19;5014322;28;19929;-88
2021/12/14 07:32:45;;;;;;;;;;;;;;;0.70;100.00;97139.72;5013149;28;19922;-88
2021/12/14 07:35:16;;;;;;;;;;;;;;;0.89;100.00;97120.56;5015424;28;19909;-88
2021/12/14 07:37:42;;;;;;;;;;;;;;;0.76;100.00;97112.41;5013883;28;19921;-89
2021/12/14 07:40:08;;;;;;;;;;;;;;;0.67;100.00;97105.53;5006871;28;19944;-88
2021/12/14 07:42:34;;;;;;;;;;;;;;;0.77;100.00;97117.41;5013081;28;19909;-88
2021/12/14 07:45:01;;;;;;;;;;;;;;;0.63;100.00;97115.38;5016945;28;19921;-87
2021/12/14 07:47:26;;;;;;;;;;;;;;;0.69;100.00;97134.66;5018350;28;19914;-87
2021/12/14 07:49:55;;;;;;;;;;;;;;;0.85;100.00;97119.22;5018972;28;19949;-89
2021/12/14 07:52:23;;;;;;;;;;;;;;;0.87;100.00;97117.31;5017840;28;19922;-88
2021/12/14 07:54:50;;;;;;;;;;;;;;;0.79;100.00;97114.66;5008701;28;20397;-88
2021/12/14 07:57:18;;;;;;;;;;;;;;;0.83;100.00;97115.19;5008782;28;19972;-89
2021/12/14 07:59:45;;;;;;;;;;;;;;;0.89;100.00;97117.97;5005570;28;20012;-89
2021/12/14 08:02:14;;;;;;;;;;;;;;;0.62;100.00;97105.16;5003928;28;19929;-88
2021/12/14 08:04:41;;;;;;;;;;;;;;;0.80;100.00;97090.38;5006614;28;19933;-87
2021/12/14 08:07:09;;;;;;;;;;;;;;;0.73;100.00;97095.38;5009885;28;19993;-88
2021/12/14 08:09:45;;;;;;;;;;;;;;;0.73;100.00;97084.19;5009532;28;19929;-87
2021/12/14 08:12:11;;;;;;;;;;;;;;;0.77;100.00;97093.28;5009712;28;19938;-88
2021/12/14 08:14:37;;;;;;;;;;;;;;;1.07;100.00;97096.38;5007286;28;19972;-87
2021/12/14 08:17:06;;;;;;;;;;;;;;;0.95;100.00;97093.22;5007247;28;20601;-88
2021/12/14 08:19:35;;;;;;;;;;;;;;;1.08;100.00;97083.28;5014537;28;19948;-89
2021/12/14 08:22:04;;;;;;;;;;;;;;;1.13;100.00;97075.00;5017562;28;19977;-89
2021/12/14 08:24:30;;;;;;;;;;;;;;;1.13;100.00;97100.94;5014039;28;20436;-88
2021/12/14 08:26:57;;;;;;;;;;;;;;;1.04;100.00;97107.88;5007966;28;19925;-88
2021/12/14 08:29:23;;;;;;;;;;;;;;;0.94;100.00;97104.56;5008805;28;19981;-87
2021/12/14 08:31:51;;;;;;;;;;;;;;;1.09;100.00;97105.63;5007055;28;20317;-89
2021/12/14 08:34:19;;;;;;;;;;;;;;;0.91;100.00;97097.09;5008449;28;19922;-88
2021/12/14 08:36:47;;;;;;;;;;;;;;;0.97;100.00;97102.50;5012985;28;19922;-88
2021/12/14 08:39:14;;;;;;;;;;;;;;;1.07;100.00;97101.53;5013428;28;19921;-89
2021/12/14 08:41:48;;;;;;;;;;;;;;;1.26;100.00;97106.50;5006618;28;20226;-88
2021/12/14 08:44:20;;;;;;;;;;;;;;;1.30;100.00;97113.00;5007428;28;19944;-87
2021/12/14 08:46:49;;;;;;;;;;;;;;;1.03;100.00;97098.47;5009571;28;19926;-89
2021/12/14 08:49:15;;;;;;;;;;;;;;;1.12;100.00;97120.84;5015250;28;19913;-87
2021/12/14 08:54:21;;;;;;;;;;;;;;;1.50;100.00;97103.19;5366929;22;19920;-89
2021/12/14 08:56:49;;;;;;;;;;;;;;;1.49;100.00;97111.94;5024659;28;19921;-87
2021/12/14 08:59:17;;;;;;;;;;;;;;;1.49;100.00;97132.69;5031433;28;19912;-88
2021/12/14 09:01:43;;;;;;;;;;;;;;;1.61;100.00;97134.03;5019453;28;19948;-87
2021/12/14 09:04:10;;;;;;;;;;;;;;;1.76;100.00;97126.47;5018244;28;19957;-88
2021/12/14 09:06:37;;;;;;;;;;;;;;;1.67;100.00;97115.28;5037587;22;20156;-85
2021/12/14 09:09:06;;;;;;;;;;;;;;;1.59;100.00;97128.19;5016512;28;19940;-85
2021/12/14 09:11:36;;;;;;;;;;;;;;;1.43;100.00;97118.56;5017181;28;19977;-85
2021/12/14 09:14:02;;;;;;;;;;;;;;;1.36;100.00;97114.19;5016544;28;19921;-87
2021/12/14 09:16:30;;;;;;;;;;;;;;;1.37;100.00;97115.78;5011256;28;19921;-86
2021/12/14 09:18:58;;;;;;;;;;;;;;;1.36;100.00;97117.56;5003024;28;19965;-85
2021/12/14 09:21:25;;;;;;;;;;;;;;;1.42;100.00;97124.72;5003973;28;19921;-86
2021/12/14 09:23:53;;;;;;;;;;;;;;;1.58;100.00;97116.19;5001824;28;19922;-85
2021/12/14 09:26:20;;;;;;;;;;;;;;;1.88;100.00;97132.97;5002130;28;19941;-86
2021/12/14 09:28:48;;;;;;;;;;;;;;;1.85;100.00;97141.09;5003002;28;20024;-86
2021/12/14 09:31:15;;;;;;;;;;;;;;;2.12;100.00;97149.59;5004271;28;19921;-86
2021/12/14 09:33:42;;;;;;;;;;;;;;;2.17;100.00;97153.31;5005486;28;19969;-85
2021/12/14 09:36:12;;;;;;;;;;;;;;;2.33;99.04;97140.38;5004772;28;19926;-86
2021/12/14 09:38:41;;;;;;;;;;;;;;;2.48;98.78;97129.34;5008421;28;19921;-85
2021/12/14 09:41:08;;;;;;;;;;;;;;;2.24;99.41;97117.16;5005262;28;19933;-87
2021/12/14 09:43:34;;;;;;;;;;;;;;;2.27;99.48;97120.25;5010404;28;19922;-86
2021/12/14 09:46:01;;;;;;;;;;;;;;;2.36;99.38;97108.06;5008141;28;19928;-86
2021/12/14 09:48:28;;;;;;;;;;;;;;;2.52;98.72;97115.03;5009189;28;19988;-86
2021/12/14 09:50:55;;;;;;;;;;;;;;;2.41;98.22;97105.78;5010441;28;19922;-86
2021/12/14 09:53:22;;;;;;;;;;;;;;;2.38;99.66;97103.53;5004285;28;19922;-86
2021/12/14 09:55:49;;;;;;;;;;;;;;;2.22;99.57;97088.75;5006000;28;19928;-86
2021/12/14 09:58:18;;;;;;;;;;;;;;;2.34;99.82;97113.44;5003310;28;19928;-86
2021/12/14 10:00:45;;;;;;;;;;;;;;;2.45;99.71;97114.09;5002553;28;19922;-86
2021/12/14 10:03:13;;;;;;;;;;;;;;;2.75;98.20;97099.63;5004587;28;19925;-84
2021/12/14 10:05:43;;;;;;;;;;;;;;;2.69;98.17;97095.06;5004365;28;19941;-86
2021/12/14 10:08:15;;;;;;;;;;;;;;;2.68;97.88;97094.25;5003516;28;20397;-85
2021/12/14 10:10:43;;;;;;;;;;;;;;;2.74;97.19;97093.59;5009210;28;20395;-85
2021/12/14 10:13:09;;;;;;;;;;;;;;;2.56;97.87;97090.38;5007993;28;19922;-86
2021/12/14 10:15:37;;;;;;;;;;;;;;;2.58;98.15;97088.41;5006972;28;19954;-85
2021/12/14 10:18:06;;;;;;;;;;;;;;;2.68;97.66;97077.84;5014777;28;19917;-86
2021/12/14 10:20:36;;;;;;;;;;;;;;;2.59;98.33;97079.69;5020195;28;19921;-86
2021/12/14 10:23:04;;;;;;;;;;;;;;;2.57;98.01;97076.41;5016652;28;19934;-85
2021/12/14 10:25:30;;;;;;;;;;;;;;;2.89;97.99;97088.53;5007472;28;19953;-85
2021/12/14 10:27:58;;;;;;;;;;;;;;;2.65;98.25;97089.41;5005535;28;19922;-85
2021/12/14 10:30:26;;;;;;;;;;;;;;;2.79;98.15;97096.50;5004299;28;19929;-85
2021/12/14 10:32:51;;;;;;;;;;;;;;;2.55;99.06;97091.34;5003603;28;19972;-86
2021/12/14 10:35:22;;;;;;;;;;;;;;;2.52;99.68;97094.28;5015023;28;19925;-86
2021/12/14 10:37:54;;;;;;;;;;;;;;;2.57;99.37;97099.78;5020061;28;19949;-86
2021/12/14 10:43:15;;;;;;;;;;;;;;;2.56;99.39;97100.78;5007647;28;20052;-84
2021/12/14 10:45:42;;;;;;;;;;;;;;;2.59;99.78;97095.25;5005186;28;19921;-85
2021/12/14 10:48:08;;;;;;;;;;;;;;;2.71;98.72;97088.75;5005350;28;20273;-84
2021/12/14 10:50:36;;;;;;;;;;;;;;;2.70;99.44;97084.53;5013570;28;19909;-84
2021/12/14 10:53:04;;;;;;;;;;;;;;;3.02;98.56;97080.25;5019288;28;19991;-85
2021/12/14 10:55:35;;;;;;;;;;;;;;;3.17;98.13;97099.34;5019701;28;19922;-86
2021/12/14 10:58:01;;;;;;;;;;;;;;;3.35;96.95;97092.16;5020004;28;19922;-86
2021/12/14 11:00:30;;;;;;;;;;;;;;;3.32;96.69;97095.06;5019370;28;19929;-85
2021/12/14 11:03:01;;;;;;;;;;;;;;;3.45;97.25;97083.34;5013034;28;20037;-86
2021/12/14 11:05:27;;;;;;;;;;;;;;;3.38;96.98;97094.41;5007290;28;20038;-85
2021/12/14 11:07:53;;;;;;;;;;;;;;;3.18;97.97;97087.19;5009522;28;19910;-86
2021/12/14 11:10:26;;;;;;;;;;;;;;;3.17;98.12;97081.16;5019365;28;19964;-86
2021/12/14 11:12:57;;;;;;;;;;;;;;;3.15;97.91;97075.31;5017898;28;19981;-87
2021/12/14 11:15:26;;;;;;;;;;;;;;;3.12;97.76;97066.09;5016658;28;19948;-86
2021/12/14 11:18:11;;;;;;;;;;;;;;;3.15;97.78;97057.13;5012140;28;19922;-85
2021/12/14 11:20:39;;;;;;;;;;;;;;;3.07;98.09;97054.56;5005130;28;19961;-85
2021/12/14 11:23:09;;;;;;;;;;;;;;;3.21;98.05;97059.03;5008097;28;19997;-86
2021/12/14 11:25:41;;;;;;;;;;;;;;;3.16;97.96;97056.94;5007142;28;20372;-84
2021/12/14 11:28:10;;;;;;;;;;;;;;;3.29;98.22;97056.44;5007760;28;19979;-85
2021/12/14 11:30:37;;;;;;;;;;;;;;;3.49;97.08;97061.19;5007874;28;20297;-84
2021/12/14 11:33:06;;;;;;;;;;;;;;;3.61;96.29;97070.28;5009835;28;19909;-85
2021/12/14 11:35:33;;;;;;;;;;;;;;;3.57;96.18;97075.00;5008050;28;20289;-86
2021/12/14 11:38:01;;;;;;;;;;;;;;;3.78;96.47;97077.00;5007445;28;19921;-86
2021/12/14 11:40:29;;;;;;;;;;;;;;;4.02;95.69;97072.59;5007165;28;19961;-85
2021/12/14 11:43:08;;;;;;;;;;;;;;;4.28;94.53;97073.06;5007099;28;19953;-86
2021/12/14 11:45:34;;;;;;;;;;;;;;;4.01;95.73;97071.00;5008807;28;19921;-86
2021/12/14 11:48:03;;;;;;;;;;;;;;;4.24;95.10;97071.78;5017713;28;19936;-86
2021/12/14 11:50:33;;;;;;;;;;;;;;;4.06;95.45;97079.91;5009138;28;19945;-85
2021/12/14 11:53:00;;;;;;;;;;;;;;;4.11;94.82;97080.19;5007551;28;19985;-85
2021/12/14 11:55:36;;;;;;;;;;;;;;;4.16;95.52;97079.69;5007771;28;19945;-84
2021/12/14 11:58:11;;;;;;;;;;;;;;;3.90;96.04;97080.00;5011211;28;20334;-85
2021/12/14 12:00:38;;;;;;;;;;;;;;;3.94;96.57;97082.09;5006925;28;20354;-85
2021/12/14 12:03:21;;;;;;;;;;;;;;;4.15;95.57;97088.50;5005828;28;20461;-85
2021/12/14 12:05:59;;;;;;;;;;;;;;;4.02;96.15;97076.03;5006430;28;20017;-85
2021/12/14 12:11:09;;;;;;;;;;;;;;;4.13;95.57;97069.59;5005917;28;19948;-85
2021/12/14 12:13:37;;;;;;;;;;;;;;;3.88;96.66;97061.16;5011381;28;19968;-87
2021/12/14 12:16:11;;;;;;;;;;;;;;;3.90;96.77;97062.59;5018218;28;19936;-86
2021/12/14 12:18:37;;;;;;;;;;;;;;;3.98;96.64;97056.53;5012244;28;19925;-86
2021/12/14 12:21:03;;;;;;;;;;;;;;;4.07;96.21;97052.88;5008762;28;19922;-87
2021/12/14 12:23:29;;;;;;;;;;;;;;;4.08;96.18;97056.28;5006185;28;20300;-85
2021/12/14 12:26:00;;;;;;;;;;;;;;;4.08;96.28;97048.47;5004588;28;20360;-85
2021/12/14 12:28:27;;;;;;;;;;;;;;;4.13;96.79;97052.19;5006333;28;19922;-84
2021/12/14 12:30:55;;;;;;;;;;;;;;;4.12;96.07;97054.97;5016116;28;19910;-85
2021/12/14 12:33:29;;;;;;;;;;;;;;;4.16;96.53;97051.84;5014754;28;19934;-85
2021/12/14 12:35:59;;;;;;;;;;;;;;;4.29;96.05;97050.44;5009661;28;19922;-86
2021/12/14 12:38:30;;;;;;;;;;;;;;;4.45;95.13;97045.91;5007378;28;19922;-85
2021/12/14 12:40:59;;;;;;;;;;;;;;;4.52;95.02;97040.81;5006364;28;19929;-85
2021/12/14 12:43:26;;;;;;;;;;;;;;;4.44;95.26;97041.69;5005899;28;19932;-85
2021/12/14 12:45:56;;;;;;;;;;;;;;;4.52;95.39;97042.59;5006116;28;19936;-85
2021/12/14 12:48:38;;;;;;;;;;;;;;;4.63;94.61;97047.41;5009143;28;19922;-85
2021/12/14 12:51:04;;;;;;;;;;;;;;;4.75;95.04;97059.00;5006948;28;19945;-85
2021/12/14 12:53:29;;;;;;;;;;;;;;;4.79;93.72;97072.47;5005976;28;19921;-86
2021/12/14 12:56:02;;;;;;;;;;;;;;;5.06;93.65;97074.50;5005969;28;19929;-85
2021/12/14 12:58:28;;;;;;;;;;;;;;;5.18;93.29;97064.41;5004980;28;19925;-85
2021/12/14 13:00:57;;;;;;;;;;;;;;;5.14;93.32;97068.38;5006638;28;20008;-85
2021/12/14 13:03:26;;;;;;;;;;;;;;;5.17;93.27;97065.41;5008375;28;19928;-84
2021/12/14 13:05:57;;;;;;;;;;;;;;;5.53;92.20;97063.63;5008901;28;19921;-85
2021/12/14 13:08:26;;;;;;;;;;;;;;;5.41;91.49;97065.09;5007122;28;20285;-86
2021/12/14 13:10:54;;;;;;;;;;;;;;;5.52;92.99;97064.63;5011451;28;19922;-85
2021/12/14 13:13:25;;;;;;;;;;;;;;;5.59;91.79;97062.09;5013088;28;19964;-87
2021/12/14 13:15:57;;;;;;;;;;;;;;;5.57;91.15;97063.28;5007483;28;19933;-86
2021/12/14 13:18:33;;;;;;;;;;;;;;;5.53;91.22;97058.41;5006078;28;19968;-86
2021/12/14 13:21:02;;;;;;;;;;;;;;;5.54;92.04;97054.00;5005181;28;19949;-86
2021/12/14 13:23:42;;;;;;;;;;;;;;;5.50;92.45;97058.81;5005080;28;19925;-85
2021/12/14 13:26:29;;;;;;;;;;;;;;;5.39;93.20;97046.22;5011655;28;19925;-85
2021/12/14 13:28:57;;;;;;;;;;;;;;;5.36;93.02;97045.78;5005478;28;20025;-84
2021/12/14 13:31:26;;;;;;;;;;;;;;;5.49;93.01;97049.38;5004515;28;19922;-85